createdAt,value
2023-07-08T00:00:59.928Z,51.179226
2023-07-08T00:01:59.766Z,51.179214
2023-07-08T00:02:59.774Z,51.179195
2023-07-08T00:03:59.746Z,51.179184
2023-07-08T00:04:59.698Z,51.179199
2023-07-08T00:05:59.698Z,51.179230
2023-07-08T00:06:59.694Z,51.179249
2023-07-08T00:07:59.672Z,51.179211
2023-07-08T00:08:59.695Z,51.179199
2023-07-08T00:09:59.669Z,51.179214
2023-07-08T00:10:59.871Z,51.179192
2023-07-08T00:11:59.626Z,51.179173
2023-07-08T00:12:59.642Z,51.179176
2023-07-08T00:13:59.608Z,51.179192
2023-07-08T00:14:59.604Z,51.179211
2023-07-08T00:15:59.567Z,51.179211
2023-07-08T00:16:59.683Z,51.179192
2023-07-08T00:17:59.624Z,51.179173
2023-07-08T00:18:59.562Z,51.179199
2023-07-08T00:19:59.522Z,51.179214
2023-07-08T00:20:59.721Z,51.179230
2023-07-08T00:21:59.534Z,51.179218
2023-07-08T00:22:59.486Z,51.179199
2023-07-08T00:23:59.524Z,51.179176
2023-07-08T00:24:59.473Z,51.179195
2023-07-08T00:25:59.477Z,51.179157
2023-07-08T00:26:59.471Z,51.179150
2023-07-08T00:27:59.456Z,51.179142
2023-07-08T00:28:59.420Z,51.179176
2023-07-08T00:29:59.437Z,51.179203
2023-07-08T00:30:59.636Z,51.179207
2023-07-08T00:31:59.394Z,51.179222
2023-07-08T00:32:59.471Z,51.179214
2023-07-08T00:33:59.412Z,51.179226
2023-07-08T00:34:59.354Z,51.179199
2023-07-08T00:35:59.373Z,51.179188
2023-07-08T00:36:59.377Z,51.179169
2023-07-08T00:37:59.358Z,51.179165
2023-07-08T00:38:59.318Z,51.179195
2023-07-08T00:39:59.354Z,51.179218
2023-07-08T00:40:59.662Z,51.179226
2023-07-08T00:41:59.290Z,51.179214
2023-07-08T00:42:59.298Z,51.179218
2023-07-08T00:43:59.292Z,51.179226
2023-07-08T00:44:59.252Z,51.179207
2023-07-08T00:46:03.032Z,51.179203
2023-07-08T00:47:00.309Z,51.179218
2023-07-08T00:47:59.238Z,51.179207
2023-07-08T00:48:59.226Z,51.179222
2023-07-08T00:49:59.204Z,51.179245
2023-07-08T00:50:59.607Z,51.179237
2023-07-08T00:51:59.188Z,51.179234
2023-07-08T00:52:59.184Z,51.179211
2023-07-08T00:53:59.168Z,51.179222
2023-07-08T00:54:59.158Z,51.179237
2023-07-08T00:55:59.174Z,51.179226
2023-07-08T00:56:59.125Z,51.179234
2023-07-08T00:57:59.108Z,51.179218
2023-07-08T00:58:59.134Z,51.179234
2023-07-08T00:59:59.090Z,51.179230
2023-07-08T01:00:59.300Z,51.179241
2023-07-08T01:01:59.150Z,51.179237
2023-07-08T01:02:59.195Z,51.179237
2023-07-08T01:03:59.093Z,51.179237
2023-07-08T01:04:59.058Z,51.179260
2023-07-08T01:05:59.055Z,51.179276
2023-07-08T01:06:59.022Z,51.179249
2023-07-08T01:07:59.029Z,51.179218
2023-07-08T01:08:59.009Z,51.179241
2023-07-08T01:09:59.001Z,51.179230
2023-07-08T01:11:00.856Z,51.179237
2023-07-08T01:11:59.979Z,51.179211
2023-07-08T01:12:58.970Z,51.179195
2023-07-08T01:13:58.960Z,51.179165
2023-07-08T01:14:58.917Z,51.179161
2023-07-08T01:15:58.920Z,51.179188
2023-07-08T01:16:58.931Z,51.179203
2023-07-08T01:17:58.975Z,51.179237
2023-07-08T01:18:58.867Z,51.179230
2023-07-08T01:19:58.902Z,51.179226
2023-07-08T01:20:59.175Z,51.179192
2023-07-08T01:21:58.855Z,51.179192
2023-07-08T01:22:58.860Z,51.179226
2023-07-08T01:23:58.832Z,51.179226
2023-07-08T01:24:58.801Z,51.179226
2023-07-08T01:25:58.812Z,51.179226
2023-07-08T01:26:58.807Z,51.179218
2023-07-08T01:27:58.777Z,51.179222
2023-07-08T01:28:58.785Z,51.179199
2023-07-08T01:29:58.766Z,51.179234
2023-07-08T01:30:59.182Z,51.179230
2023-07-08T01:31:58.778Z,51.179237
2023-07-08T01:32:58.849Z,51.179234
2023-07-08T01:33:58.732Z,51.179234
2023-07-08T01:34:58.696Z,51.179264
2023-07-08T01:35:58.717Z,51.179230
2023-07-08T01:36:58.684Z,51.179237
2023-07-08T01:37:58.666Z,51.179276
2023-07-08T01:38:58.672Z,51.179268
2023-07-08T01:39:58.653Z,51.179237
2023-07-08T01:40:59.070Z,51.179249
2023-07-08T01:41:58.658Z,51.179268
2023-07-08T01:42:58.637Z,51.179226
2023-07-08T01:43:58.612Z,51.179173
2023-07-08T01:44:58.578Z,51.179195
2023-07-08T01:45:58.602Z,51.179184
2023-07-08T01:46:58.629Z,51.179153
2023-07-08T01:47:58.641Z,51.179176
2023-07-08T01:48:58.525Z,51.179188
2023-07-08T01:49:58.529Z,51.179173
2023-07-08T01:50:59.171Z,51.179165
2023-07-08T01:51:58.525Z,51.179207
2023-07-08T01:52:58.524Z,51.179211
2023-07-08T01:53:58.497Z,51.179161
2023-07-08T01:54:58.457Z,51.179150
2023-07-08T01:55:58.457Z,51.179195
2023-07-08T01:56:58.484Z,51.179207
2023-07-08T01:57:58.463Z,51.179218
2023-07-08T01:58:58.414Z,51.179226
2023-07-08T01:59:58.440Z,51.179264
2023-07-08T02:00:58.632Z,51.179237
2023-07-08T02:01:58.438Z,51.179222
2023-07-08T02:02:58.495Z,51.179283
2023-07-08T02:03:58.370Z,51.179253
2023-07-08T02:04:58.384Z,51.179153
2023-07-08T02:05:58.435Z,51.179127
2023-07-08T02:06:58.356Z,51.179153
2023-07-08T02:07:58.321Z,51.179115
2023-07-08T02:08:58.328Z,51.179146
2023-07-08T02:09:58.300Z,51.179169
2023-07-08T02:10:58.559Z,51.179169
2023-07-08T02:11:58.282Z,51.179192
2023-07-08T02:12:58.318Z,51.179211
2023-07-08T02:13:58.315Z,51.179176
2023-07-08T02:14:58.255Z,51.179169
2023-07-08T02:15:58.253Z,51.179173
2023-07-08T02:16:58.239Z,51.179188
2023-07-08T02:17:58.228Z,51.179207
2023-07-08T02:18:58.185Z,51.179230
2023-07-08T02:19:58.184Z,51.179218
2023-07-08T02:20:58.369Z,51.179192
2023-07-08T02:21:58.164Z,51.179237
2023-07-08T02:22:58.161Z,51.179237
2023-07-08T02:23:58.158Z,51.179249
2023-07-08T02:24:58.118Z,51.179245
2023-07-08T02:25:58.130Z,51.179253
2023-07-08T02:26:58.121Z,51.179264
2023-07-08T02:27:58.112Z,51.179283
2023-07-08T02:28:58.090Z,51.179302
2023-07-08T02:29:58.065Z,51.179291
2023-07-08T02:30:58.343Z,51.179306
2023-07-08T02:31:58.064Z,51.179283
2023-07-08T02:32:58.416Z,51.179276
2023-07-08T02:33:59.036Z,51.179249
2023-07-08T02:34:58.001Z,51.179237
2023-07-08T02:35:57.997Z,51.179237
2023-07-08T02:36:58.015Z,51.179260
2023-07-08T02:37:57.996Z,51.179264
2023-07-08T02:38:57.961Z,51.179268
2023-07-08T02:39:57.977Z,51.179276
2023-07-08T02:40:58.047Z,51.179279
2023-07-08T02:41:57.955Z,51.179268
2023-07-08T02:42:57.961Z,51.179283
2023-07-08T02:43:57.911Z,51.179283
2023-07-08T02:44:57.895Z,51.179272
2023-07-08T02:45:57.916Z,51.179268
2023-07-08T02:46:57.903Z,51.179253
2023-07-08T02:47:57.888Z,51.179276
2023-07-08T02:48:57.884Z,51.179287
2023-07-08T02:49:57.847Z,51.179287
2023-07-08T02:50:57.973Z,51.179295
2023-07-08T02:51:57.816Z,51.179317
2023-07-08T02:52:57.858Z,51.179325
2023-07-08T02:53:57.831Z,51.179253
2023-07-08T02:54:57.775Z,51.179234
2023-07-08T02:55:57.812Z,51.179272
2023-07-08T02:56:57.775Z,51.179260
2023-07-08T02:57:57.756Z,51.179230
2023-07-08T02:58:57.763Z,51.179150
2023-07-08T02:59:57.753Z,51.179214
2023-07-08T03:00:57.741Z,51.179256
2023-07-08T03:01:57.754Z,51.179245
2023-07-08T03:02:57.819Z,51.179234
2023-07-08T03:03:57.701Z,51.179234
2023-07-08T03:04:57.704Z,51.179249
2023-07-08T03:05:57.694Z,51.179264
2023-07-08T03:06:57.650Z,51.179260
2023-07-08T03:07:57.643Z,51.179260
2023-07-08T03:08:57.665Z,51.179264
2023-07-08T03:09:57.630Z,51.179264
2023-07-08T03:10:58.012Z,51.179237
2023-07-08T03:11:57.621Z,51.179203
2023-07-08T03:12:57.590Z,51.179211
2023-07-08T03:13:57.618Z,51.179253
2023-07-08T03:14:57.605Z,51.179256
2023-07-08T03:15:57.569Z,51.179234
2023-07-08T03:16:57.589Z,51.179253
2023-07-08T03:17:57.576Z,51.179214
2023-07-08T03:18:57.534Z,51.179218
2023-07-08T03:19:57.520Z,51.179211
2023-07-08T03:20:57.741Z,51.179222
2023-07-08T03:21:57.496Z,51.179237
2023-07-08T03:22:57.488Z,51.179234
2023-07-08T03:23:57.471Z,51.179237
2023-07-08T03:24:57.447Z,51.179276
2023-07-08T03:25:57.442Z,51.179276
2023-07-08T03:26:57.457Z,51.179276
2023-07-08T03:27:57.395Z,51.179253
2023-07-08T03:28:57.420Z,51.179234
2023-07-08T03:29:57.400Z,51.179237
2023-07-08T03:30:57.416Z,51.179218
2023-07-08T03:31:57.382Z,51.179199
2023-07-08T03:32:57.449Z,51.179230
2023-07-08T03:33:57.360Z,51.179268
2023-07-08T03:34:57.320Z,51.179260
2023-07-08T03:35:57.358Z,51.179268
2023-07-08T03:36:57.288Z,51.179287
2023-07-08T03:37:57.298Z,51.179287
2023-07-08T03:38:57.318Z,51.179298
2023-07-08T03:39:57.278Z,51.179295
2023-07-08T03:40:57.346Z,51.179295
2023-07-08T03:41:57.261Z,51.179230
2023-07-08T03:42:57.264Z,51.179214
2023-07-08T03:43:57.235Z,51.179279
2023-07-08T03:44:57.246Z,51.179276
2023-07-08T03:45:57.210Z,51.179260
2023-07-08T03:46:57.195Z,51.179272
2023-07-08T03:47:57.247Z,51.179256
2023-07-08T03:48:57.197Z,51.179245
2023-07-08T03:49:57.163Z,51.179241
2023-07-08T03:50:57.264Z,51.179184
2023-07-08T03:51:57.153Z,51.179199
2023-07-08T03:52:57.153Z,51.179192
2023-07-08T03:53:57.193Z,51.179234
2023-07-08T03:54:57.097Z,51.179256
2023-07-08T03:55:57.100Z,51.179249
2023-07-08T03:56:57.125Z,51.179253
2023-07-08T03:57:57.081Z,51.179241
2023-07-08T03:58:57.045Z,51.179276
2023-07-08T03:59:57.090Z,51.179268
2023-07-08T04:00:57.037Z,51.179264
2023-07-08T04:01:57.237Z,51.179272
2023-07-08T04:02:57.089Z,51.179264
2023-07-08T04:03:57.145Z,51.179234
2023-07-08T04:04:57.020Z,51.179245
2023-07-08T04:05:57.147Z,51.179272
2023-07-08T04:06:57.043Z,51.179253
2023-07-08T04:07:56.951Z,51.179222
2023-07-08T04:08:57.000Z,51.179226
2023-07-08T04:09:56.951Z,51.179230
2023-07-08T04:10:56.916Z,51.179260
2023-07-08T04:11:56.907Z,51.179245
2023-07-08T04:12:56.918Z,51.179256
2023-07-08T04:13:56.914Z,51.179222
2023-07-08T04:14:56.877Z,51.179195
2023-07-08T04:15:56.892Z,51.179207
2023-07-08T04:16:56.952Z,51.179199
2023-07-08T04:17:56.902Z,51.179245
2023-07-08T04:18:56.854Z,51.179264
2023-07-08T04:19:56.833Z,51.179180
2023-07-08T04:21:57.807Z,51.179192
2023-07-08T04:22:56.798Z,51.179222
2023-07-08T04:23:56.778Z,51.179241
2023-07-08T04:24:56.754Z,51.179245
2023-07-08T04:25:56.769Z,51.179237
2023-07-08T04:26:56.771Z,51.179222
2023-07-08T04:27:56.737Z,51.179207
2023-07-08T04:28:56.730Z,51.179211
2023-07-08T04:29:57.711Z,51.179203
2023-07-08T04:30:56.744Z,51.179203
2023-07-08T04:31:56.669Z,51.179264
2023-07-08T04:32:56.717Z,51.179291
2023-07-08T04:33:56.678Z,51.179295
2023-07-08T04:34:56.663Z,51.179264
2023-07-08T04:35:56.649Z,51.179226
2023-07-08T04:36:56.666Z,51.179222
2023-07-08T04:37:56.631Z,51.179192
2023-07-08T04:38:56.588Z,51.179226
2023-07-08T04:39:56.620Z,51.179230
2023-07-08T04:40:56.652Z,51.179241
2023-07-08T04:41:56.586Z,51.179165
2023-07-08T04:42:56.593Z,51.179188
2023-07-08T04:43:56.557Z,51.179218
2023-07-08T04:44:56.528Z,51.179249
2023-07-08T04:45:56.614Z,51.179253
2023-07-08T04:46:56.564Z,51.179276
2023-07-08T04:47:56.576Z,51.179264
2023-07-08T04:48:56.519Z,51.179295
2023-07-08T04:49:56.516Z,51.179276
2023-07-08T04:50:56.461Z,51.179253
2023-07-08T04:51:57.471Z,51.179237
2023-07-08T04:52:56.508Z,51.179249
2023-07-08T04:53:56.463Z,51.179234
2023-07-08T04:54:56.427Z,51.179249
2023-07-08T04:55:56.476Z,51.179253
2023-07-08T04:56:56.437Z,51.179249
2023-07-08T04:57:56.418Z,51.179226
2023-07-08T04:58:56.395Z,51.179211
2023-07-08T04:59:56.396Z,51.179226
2023-07-08T05:00:56.410Z,51.179237
2023-07-08T05:01:56.412Z,51.179192
2023-07-08T05:02:56.399Z,51.179218
2023-07-08T05:03:56.406Z,51.179272
2023-07-08T05:04:56.328Z,51.179279
2023-07-08T05:05:56.331Z,51.179291
2023-07-08T05:06:56.351Z,51.179283
2023-07-08T05:07:56.309Z,51.179298
2023-07-08T05:08:56.295Z,51.179302
2023-07-08T05:09:56.294Z,51.179268
2023-07-08T05:10:56.287Z,51.179256
2023-07-08T05:11:56.241Z,51.179218
2023-07-08T05:12:56.266Z,51.179226
2023-07-08T05:13:56.267Z,51.179237
2023-07-08T05:14:56.213Z,51.179253
2023-07-08T05:15:56.278Z,51.179249
2023-07-08T05:16:56.237Z,51.179256
2023-07-08T05:17:56.257Z,51.179264
2023-07-08T05:18:56.165Z,51.179241
2023-07-08T05:19:56.204Z,51.179226
2023-07-08T05:20:56.139Z,51.179260
2023-07-08T05:21:56.147Z,51.179276
2023-07-08T05:22:56.158Z,51.179276
2023-07-08T05:23:56.136Z,51.179253
2023-07-08T05:24:56.112Z,51.179222
2023-07-08T05:25:56.113Z,51.179241
2023-07-08T05:26:56.119Z,51.179245
2023-07-08T05:27:56.096Z,51.179241
2023-07-08T05:28:56.084Z,51.179256
2023-07-08T05:29:56.071Z,51.179268
2023-07-08T05:30:56.072Z,51.179256
2023-07-08T05:31:56.082Z,51.179283
2023-07-08T05:32:56.075Z,51.179291
2023-07-08T05:33:56.029Z,51.179279
2023-07-08T05:34:56.022Z,51.179291
2023-07-08T05:35:55.988Z,51.179268
2023-07-08T05:36:56.016Z,51.179260
2023-07-08T05:37:55.977Z,51.179279
2023-07-08T05:38:55.967Z,51.179283
2023-07-08T05:39:55.948Z,51.179283
2023-07-08T05:40:55.960Z,51.179260
2023-07-08T05:41:55.935Z,51.179249
2023-07-08T05:42:55.908Z,51.179253
2023-07-08T05:43:55.938Z,51.179230
2023-07-08T05:44:55.884Z,51.179218
2023-07-08T05:46:10.425Z,51.179268
2023-07-08T05:46:57.962Z,51.179302
2023-07-08T05:47:55.872Z,51.179298
2023-07-08T05:48:56.333Z,51.179298
2023-07-08T05:49:55.864Z,51.179272
2023-07-08T05:50:55.868Z,51.179264
2023-07-08T05:51:55.811Z,51.179268
2023-07-08T05:52:55.831Z,51.179291
2023-07-08T05:53:55.808Z,51.179291
2023-07-08T05:54:55.789Z,51.179298
2023-07-08T05:55:55.785Z,51.179279
2023-07-08T05:56:55.784Z,51.179276
2023-07-08T05:57:55.760Z,51.179291
2023-07-08T05:58:55.743Z,51.179291
2023-07-08T05:59:55.740Z,51.179268
2023-07-08T06:00:55.841Z,51.179249
2023-07-08T06:01:56.026Z,51.179249
2023-07-08T06:02:55.728Z,51.179226
2023-07-08T06:03:55.788Z,51.179188
2023-07-08T06:04:55.705Z,51.179176
2023-07-08T06:05:55.678Z,51.179203
2023-07-08T06:06:55.658Z,51.179214
2023-07-08T06:07:55.682Z,51.179184
2023-07-08T06:08:55.606Z,51.179188
2023-07-08T06:09:55.631Z,51.179241
2023-07-08T06:10:55.651Z,51.179253
2023-07-08T06:11:55.615Z,51.179241
2023-07-08T06:12:55.561Z,51.179234
2023-07-08T06:13:55.609Z,51.179234
2023-07-08T06:14:55.592Z,51.179226
2023-07-08T06:15:55.584Z,51.179218
2023-07-08T06:16:55.650Z,51.179234
2023-07-08T06:17:55.580Z,51.179218
2023-07-08T06:18:55.522Z,51.179256
2023-07-08T06:19:55.522Z,51.179253
2023-07-08T06:20:55.509Z,51.179226
2023-07-08T06:21:59.346Z,51.179256
2023-07-08T06:22:56.463Z,51.179249
2023-07-08T06:23:55.481Z,51.179249
2023-07-08T06:24:55.482Z,51.179230
2023-07-08T06:25:55.464Z,51.179230
2023-07-08T06:27:56.431Z,51.179260
2023-07-08T06:28:55.423Z,51.179245
2023-07-08T06:29:55.402Z,51.179268
2023-07-08T06:30:55.420Z,51.179249
2023-07-08T06:31:55.528Z,51.179226
2023-07-08T06:32:55.454Z,51.179192
2023-07-08T06:33:55.366Z,51.179211
2023-07-08T06:34:55.385Z,51.179230
2023-07-08T06:35:55.345Z,51.179237
2023-07-08T06:36:55.333Z,51.179237
2023-07-08T06:37:55.317Z,51.179214
2023-07-08T06:38:55.328Z,51.179207
2023-07-08T06:39:55.290Z,51.179199
2023-07-08T06:40:55.303Z,51.179207
2023-07-08T06:41:55.285Z,51.179226
2023-07-08T06:42:55.256Z,51.179253
2023-07-08T06:43:55.254Z,51.179253
2023-07-08T06:44:55.276Z,51.179260
2023-07-08T06:45:55.263Z,51.179218
2023-07-08T06:46:55.207Z,51.179165
2023-07-08T06:47:55.279Z,51.179165
2023-07-08T06:48:55.186Z,51.179184
2023-07-08T06:49:57.442Z,51.179234
2023-07-08T06:50:55.199Z,51.179234
2023-07-08T06:51:55.177Z,51.179226
2023-07-08T06:52:55.140Z,51.179222
2023-07-08T06:53:55.144Z,51.179230
2023-07-08T06:54:55.171Z,51.179230
2023-07-08T06:55:55.114Z,51.179222
2023-07-08T06:56:55.141Z,51.179207
2023-07-08T06:57:55.108Z,51.179165
2023-07-08T06:58:55.089Z,51.179199
2023-07-08T06:59:55.092Z,51.179188
2023-07-08T07:00:55.144Z,51.179184
2023-07-08T07:01:55.124Z,51.179188
2023-07-08T07:02:55.080Z,51.179188
2023-07-08T07:03:55.091Z,51.179180
2023-07-08T07:04:55.039Z,51.179173
2023-07-08T07:05:55.018Z,51.179184
2023-07-08T07:06:55.021Z,51.179188
2023-07-08T07:07:55.012Z,51.179260
2023-07-08T07:08:54.988Z,51.179279
2023-07-08T07:09:54.982Z,51.179279
2023-07-08T07:10:54.996Z,51.179249
2023-07-08T07:11:54.940Z,51.179245
2023-07-08T07:12:54.972Z,51.179234
2023-07-08T07:13:54.962Z,51.179214
2023-07-08T07:14:54.946Z,51.179237
2023-07-08T07:15:54.944Z,51.179253
2023-07-08T07:17:07.235Z,51.179253
2023-07-08T07:17:57.004Z,51.179234
2023-07-08T07:18:54.864Z,51.179222
2023-07-08T07:19:54.917Z,51.179249
2023-07-08T07:20:54.854Z,51.179234
2023-07-08T07:21:54.848Z,51.179241
2023-07-08T07:22:54.899Z,51.179253
2023-07-08T07:23:54.836Z,51.179264
2023-07-08T07:24:54.803Z,51.179260
2023-07-08T07:25:54.860Z,51.179268
2023-07-08T07:26:54.814Z,51.179260
2023-07-08T07:27:54.774Z,51.179245
2023-07-08T07:28:54.797Z,51.179241
2023-07-08T07:29:54.770Z,51.179249
2023-07-08T07:30:54.782Z,51.179260
2023-07-08T07:31:54.747Z,51.179253
2023-07-08T07:32:54.768Z,51.179268
2023-07-08T07:33:54.736Z,51.179256
2023-07-08T07:34:54.709Z,51.179260
2023-07-08T07:35:54.695Z,51.179211
2023-07-08T07:36:56.644Z,51.179184
2023-07-08T07:37:54.697Z,51.179203
2023-07-08T07:38:54.661Z,51.179241
2023-07-08T07:39:54.657Z,51.179218
2023-07-08T07:40:54.671Z,51.179256
2023-07-08T07:41:54.649Z,51.179249
2023-07-08T07:42:54.616Z,51.179253
2023-07-08T07:43:54.638Z,51.179256
2023-07-08T07:44:54.595Z,51.179249
2023-07-08T07:45:54.596Z,51.179234
2023-07-08T07:46:54.729Z,51.179214
2023-07-08T07:47:54.599Z,51.179192
2023-07-08T07:48:54.566Z,51.179188
2023-07-08T07:49:54.563Z,51.179218
2023-07-08T07:50:54.558Z,51.179222
2023-07-08T07:51:54.539Z,51.179214
2023-07-08T07:52:54.551Z,51.179222
2023-07-08T07:53:54.545Z,51.179234
2023-07-08T07:54:54.498Z,51.179245
2023-07-08T07:55:54.541Z,51.179256
2023-07-08T07:56:54.496Z,51.179173
2023-07-08T07:57:54.471Z,51.179165
2023-07-08T07:58:54.487Z,51.179173
2023-07-08T07:59:54.486Z,51.179199
2023-07-08T08:00:54.438Z,51.179241
2023-07-08T08:01:54.499Z,51.179264
2023-07-08T08:02:54.466Z,51.179249
2023-07-08T08:03:54.462Z,51.179207
2023-07-08T08:04:54.406Z,51.179230
2023-07-08T08:05:54.385Z,51.179272
2023-07-08T08:06:54.423Z,51.179276
2023-07-08T08:07:54.392Z,51.179226
2023-07-08T08:08:54.346Z,51.179237
2023-07-08T08:09:54.354Z,51.179291
2023-07-08T08:10:54.378Z,51.179317
2023-07-08T08:11:54.366Z,51.179329
2023-07-08T08:12:54.600Z,51.179321
2023-07-08T08:13:54.359Z,51.179298
2023-07-08T08:14:54.331Z,51.179264
2023-07-08T08:15:54.275Z,51.179253
2023-07-08T08:16:54.378Z,51.179249
2023-07-08T08:17:54.332Z,51.179253
2023-07-08T08:18:54.256Z,51.179268
2023-07-08T08:19:54.264Z,51.179268
2023-07-08T08:20:54.285Z,51.179264
2023-07-08T08:21:54.245Z,51.179260
2023-07-08T08:22:54.207Z,51.179237
2023-07-08T08:23:54.277Z,51.179230
2023-07-08T08:24:54.205Z,51.179256
2023-07-08T08:25:54.191Z,51.179287
2023-07-08T08:26:54.208Z,51.179283
2023-07-08T08:27:54.177Z,51.179272
2023-07-08T08:28:54.171Z,51.179272
2023-07-08T08:29:54.174Z,51.179260
2023-07-08T08:30:54.191Z,51.179211
2023-07-08T08:31:55.118Z,51.179207
2023-07-08T08:32:54.167Z,51.179234
2023-07-08T08:33:54.154Z,51.179268
2023-07-08T08:34:54.101Z,51.179279
2023-07-08T08:35:54.105Z,51.179241
2023-07-08T08:36:54.100Z,51.179230
2023-07-08T08:37:54.073Z,51.179264
2023-07-08T08:38:54.062Z,51.179291
2023-07-08T08:39:54.060Z,51.179279
2023-07-08T08:40:54.096Z,51.179245
2023-07-08T08:41:54.077Z,51.179203
2023-07-08T08:42:54.025Z,51.179222
2023-07-08T08:43:55.622Z,51.179218
2023-07-08T08:44:54.025Z,51.179245
2023-07-08T08:45:54.013Z,51.179253
2023-07-08T08:46:54.103Z,51.179253
2023-07-08T08:47:54.053Z,51.179237
2023-07-08T08:48:53.947Z,51.179245
2023-07-08T08:49:53.950Z,51.179237
2023-07-08T08:50:53.968Z,51.179234
2023-07-08T08:51:53.957Z,51.179237
2023-07-08T08:52:53.946Z,51.179226
2023-07-08T08:53:53.925Z,51.179230
2023-07-08T08:54:53.939Z,51.179268
2023-07-08T08:55:53.885Z,51.179264
2023-07-08T08:56:53.960Z,51.179249
2023-07-08T08:57:53.873Z,51.179241
2023-07-08T08:58:53.851Z,51.179214
2023-07-08T08:59:53.902Z,51.179184
2023-07-08T09:00:53.882Z,51.179195
2023-07-08T09:01:53.872Z,51.179222
2023-07-08T09:02:53.838Z,51.179203
2023-07-08T09:03:53.866Z,51.179188
2023-07-08T09:04:53.797Z,51.179195
2023-07-08T09:05:53.796Z,51.179211
2023-07-08T09:06:54.194Z,51.179203
2023-07-08T09:07:54.782Z,51.179226
2023-07-08T09:08:53.752Z,51.179237
2023-07-08T09:09:53.786Z,51.179226
2023-07-08T09:10:53.756Z,51.179214
2023-07-08T09:11:53.767Z,51.179253
2023-07-08T09:12:53.702Z,51.179260
2023-07-08T09:13:53.764Z,51.179268
2023-07-08T09:14:53.718Z,51.179253
2023-07-08T09:15:53.692Z,51.179253
2023-07-08T09:16:53.706Z,51.179256
2023-07-08T09:17:53.705Z,51.179249
2023-07-08T09:18:53.681Z,51.179234
2023-07-08T09:19:53.633Z,51.179276
2023-07-08T09:20:53.671Z,51.179256
2023-07-08T09:21:53.657Z,51.179241
2023-07-08T09:22:53.712Z,51.179241
2023-07-08T09:23:53.638Z,51.179226
2023-07-08T09:24:53.628Z,51.179249
2023-07-08T09:25:53.619Z,51.179226
2023-07-08T09:26:53.588Z,51.179256
2023-07-08T09:27:53.602Z,51.179260
2023-07-08T09:28:53.544Z,51.179241
2023-07-08T09:29:53.566Z,51.179268
2023-07-08T09:30:53.580Z,51.179169
2023-07-08T09:31:53.577Z,51.179203
2023-07-08T09:32:53.529Z,51.179226
2023-07-08T09:33:53.505Z,51.179214
2023-07-08T09:34:53.560Z,51.179230
2023-07-08T09:35:53.541Z,51.179218
2023-07-08T09:36:53.504Z,51.179199
2023-07-08T09:37:53.509Z,51.179211
2023-07-08T09:38:53.464Z,51.179249
2023-07-08T09:39:53.441Z,51.179260
2023-07-08T09:40:53.442Z,51.179176
2023-07-08T09:41:53.450Z,51.179214
2023-07-08T09:42:53.412Z,51.179234
2023-07-08T09:43:53.405Z,51.179195
2023-07-08T09:44:53.410Z,51.179180
2023-07-08T09:45:53.411Z,51.179173
2023-07-08T09:46:53.429Z,51.179207
2023-07-08T09:47:53.407Z,51.179218
2023-07-08T09:48:53.380Z,51.179245
2023-07-08T09:49:53.343Z,51.179241
2023-07-08T09:50:53.307Z,51.179245
2023-07-08T09:51:53.325Z,51.179253
2023-07-08T09:52:53.312Z,51.179310
2023-07-08T09:53:53.294Z,51.179279
2023-07-08T09:54:53.296Z,51.179245
2023-07-08T09:55:53.277Z,51.179192
2023-07-08T09:56:53.246Z,51.179173
2023-07-08T09:57:53.275Z,51.179169
2023-07-08T09:58:53.278Z,51.179199
2023-07-08T09:59:53.202Z,51.179203
2023-07-08T10:00:53.244Z,51.179226
2023-07-08T10:01:53.240Z,51.179218
2023-07-08T10:02:53.267Z,51.179279
2023-07-08T10:03:53.213Z,51.179333
2023-07-08T10:04:53.206Z,51.179352
2023-07-08T10:05:53.178Z,51.179333
2023-07-08T10:06:53.164Z,51.179317
2023-07-08T10:07:53.165Z,51.179348
2023-07-08T10:08:53.109Z,51.179390
2023-07-08T10:09:54.127Z,51.179417
2023-07-08T10:10:53.141Z,51.179367
2023-07-08T10:11:53.235Z,51.179317
2023-07-08T10:12:53.115Z,51.179276
2023-07-08T10:14:11.634Z,51.179199
2023-07-08T10:14:55.094Z,51.179211
2023-07-08T10:15:53.157Z,51.179272
2023-07-08T10:16:53.185Z,51.179234
2023-07-08T10:17:53.184Z,51.179291
2023-07-08T10:18:53.053Z,51.179306
2023-07-08T10:19:53.041Z,51.179302
2023-07-08T10:20:53.037Z,51.179329
2023-07-08T10:21:53.085Z,51.179340
2023-07-08T10:22:53.017Z,51.179333
2023-07-08T10:23:52.987Z,51.179291
2023-07-08T10:24:53.042Z,51.179268
2023-07-08T10:25:53.065Z,51.179291
2023-07-08T10:26:53.025Z,51.179302
2023-07-08T10:27:53.034Z,51.179329
2023-07-08T10:28:53.003Z,51.179337
2023-07-08T10:29:53.001Z,51.179333
2023-07-08T10:30:52.888Z,51.179310
2023-07-08T10:31:53.017Z,51.179310
2023-07-08T10:32:52.987Z,51.179295
2023-07-08T10:33:52.925Z,51.179291
2023-07-08T10:34:52.868Z,51.179283
2023-07-08T10:35:52.853Z,51.179276
2023-07-08T10:36:52.838Z,51.179279
2023-07-08T10:37:52.827Z,51.179310
2023-07-08T10:38:52.826Z,51.179314
2023-07-08T10:39:52.805Z,51.179287
2023-07-08T10:40:52.800Z,51.179302
2023-07-08T10:41:52.791Z,51.179325
2023-07-08T10:42:52.808Z,51.179340
2023-07-08T10:43:52.744Z,51.179325
2023-07-08T10:44:52.775Z,51.179279
2023-07-08T10:45:52.769Z,51.179291
2023-07-08T10:46:52.729Z,51.179302
2023-07-08T10:47:52.765Z,51.179333
2023-07-08T10:48:52.736Z,51.179321
2023-07-08T10:49:52.728Z,51.179329
2023-07-08T10:50:52.661Z,51.179344
2023-07-08T10:51:52.694Z,51.179344
2023-07-08T10:52:52.677Z,51.179329
2023-07-08T10:53:53.923Z,51.179314
2023-07-08T10:54:52.648Z,51.179325
2023-07-08T10:55:52.648Z,51.179340
2023-07-08T10:56:52.644Z,51.179348
2023-07-08T10:57:52.622Z,51.179337
2023-07-08T10:58:52.613Z,51.179317
2023-07-08T10:59:52.612Z,51.179325
2023-07-08T11:00:52.574Z,51.179317
2023-07-08T11:01:52.652Z,51.179306
2023-07-08T11:02:52.614Z,51.179298
2023-07-08T11:03:52.627Z,51.179306
2023-07-08T11:04:52.571Z,51.179321
2023-07-08T11:05:52.541Z,51.179306
2023-07-08T11:06:52.508Z,51.179325
2023-07-08T11:07:52.539Z,51.179295
2023-07-08T11:08:52.562Z,51.179287
2023-07-08T11:09:52.501Z,51.179295
2023-07-08T11:10:57.304Z,51.179249
2023-07-08T11:11:54.513Z,51.179199
2023-07-08T11:12:52.450Z,51.179245
2023-07-08T11:13:52.505Z,51.179272
2023-07-08T11:14:52.489Z,51.179253
2023-07-08T11:15:52.468Z,51.179260
2023-07-08T11:16:52.440Z,51.179279
2023-07-08T11:17:52.522Z,51.179268
2023-07-08T11:18:52.443Z,51.179340
2023-07-08T11:19:52.371Z,51.179371
2023-07-08T11:20:52.434Z,51.179333
2023-07-08T11:21:52.385Z,51.179310
2023-07-08T11:22:52.380Z,51.179272
2023-07-08T11:23:52.376Z,51.179241
2023-07-08T11:24:52.369Z,51.179249
2023-07-08T11:25:52.364Z,51.179226
2023-07-08T11:26:52.346Z,51.179211